createdAt,value
2022-08-20T00:00:29.745Z,19.68
2022-08-20T00:03:00.740Z,19.65
2022-08-20T00:05:32.207Z,19.68
2022-08-20T00:07:59.269Z,19.73
2022-08-20T00:10:28.433Z,19.75
2022-08-20T00:12:55.547Z,19.72
2022-08-20T00:15:26.158Z,19.66
2022-08-20T00:17:52.954Z,19.59
2022-08-20T00:20:22.084Z,19.57
2022-08-20T00:22:49.268Z,19.57
2022-08-20T00:25:16.466Z,19.55
2022-08-20T00:27:43.329Z,19.51
2022-08-20T00:30:12.626Z,19.46
2022-08-20T00:32:45.538Z,19.43
2022-08-20T00:35:14.328Z,19.43
2022-08-20T00:37:40.876Z,19.40
2022-08-20T00:40:22.274Z,19.40
2022-08-20T00:42:53.622Z,19.41
2022-08-20T00:45:20.802Z,19.41
2022-08-20T00:47:51.307Z,19.42
2022-08-20T00:50:22.140Z,19.43
2022-08-20T00:52:52.142Z,19.45
2022-08-20T00:55:23.294Z,19.45
2022-08-20T00:58:00.828Z,19.47
2022-08-20T01:00:42.872Z,19.47
2022-08-20T01:03:14.993Z,19.48
2022-08-20T01:05:47.995Z,19.48
2022-08-20T01:08:18.060Z,19.46
2022-08-20T01:10:48.820Z,19.43
2022-08-20T01:13:23.767Z,19.39
2022-08-20T01:15:54.610Z,19.32
2022-08-20T01:18:26.079Z,19.34
2022-08-20T01:20:58.237Z,19.27
2022-08-20T01:23:51.796Z,19.19
2022-08-20T01:26:25.647Z,19.16
2022-08-20T01:29:09.447Z,19.17
2022-08-20T01:31:38.637Z,19.22
2022-08-20T01:34:09.401Z,19.26
2022-08-20T01:36:48.420Z,19.22
2022-08-20T01:39:19.823Z,19.23
2022-08-20T01:42:27.655Z,19.26
2022-08-20T01:44:54.217Z,19.12
2022-08-20T01:47:26.280Z,19.15
2022-08-20T01:50:00.823Z,19.15
2022-08-20T01:52:45.651Z,19.15
2022-08-20T01:55:13.168Z,19.12
2022-08-20T01:57:40.972Z,19.13
2022-08-20T02:00:19.754Z,19.16
2022-08-20T02:02:46.988Z,19.20
2022-08-20T02:05:13.581Z,19.17
2022-08-20T02:07:40.435Z,19.18
2022-08-20T02:10:09.412Z,19.15
2022-08-20T02:12:36.075Z,19.11
2022-08-20T02:15:04.780Z,19.09
2022-08-20T02:17:31.408Z,19.07
2022-08-20T02:20:02.824Z,19.06
2022-08-20T02:22:50.200Z,19.06
2022-08-20T02:25:18.429Z,19.06
2022-08-20T02:27:46.836Z,19.06
2022-08-20T02:30:27.484Z,19.03
2022-08-20T02:32:56.324Z,18.99
2022-08-20T02:35:23.752Z,18.93
2022-08-20T02:37:51.254Z,18.96
2022-08-20T02:40:27.317Z,18.95
2022-08-20T02:42:59.176Z,18.86
2022-08-20T02:45:25.999Z,18.85
2022-08-20T02:47:54.209Z,18.85
2022-08-20T02:50:21.663Z,18.73
2022-08-20T02:52:51.756Z,18.66
2022-08-20T02:55:27.023Z,18.66
2022-08-20T02:57:57.692Z,18.66
2022-08-20T03:00:27.953Z,18.71
2022-08-20T03:02:54.557Z,18.75
2022-08-20T03:05:21.068Z,18.80
2022-08-20T03:07:53.849Z,18.73
2022-08-20T03:10:25.875Z,18.72
2022-08-20T03:12:52.876Z,18.72
2022-08-20T03:15:20.441Z,18.79
2022-08-20T03:17:47.727Z,18.81
2022-08-20T03:20:14.488Z,18.80
2022-08-20T03:22:41.127Z,18.76
2022-08-20T03:25:08.477Z,18.80
2022-08-20T03:27:36.438Z,18.84
2022-08-20T03:30:06.672Z,18.86
2022-08-20T03:32:33.583Z,18.90
2022-08-20T03:35:00.240Z,18.90
2022-08-20T03:37:31.025Z,18.88
2022-08-20T03:39:57.886Z,18.80
2022-08-20T03:42:24.794Z,18.81
2022-08-20T03:44:59.218Z,18.86
2022-08-20T03:47:26.678Z,18.84
2022-08-20T03:49:57.480Z,18.86
2022-08-20T03:52:24.003Z,18.87
2022-08-20T03:54:50.584Z,18.83
2022-08-20T03:57:17.164Z,18.82
2022-08-20T03:59:44.608Z,18.71
2022-08-20T04:02:14.060Z,18.66
2022-08-20T04:04:41.364Z,18.63
2022-08-20T04:07:18.967Z,18.62
2022-08-20T04:09:45.491Z,18.61
2022-08-20T04:12:15.220Z,18.55
2022-08-20T04:14:41.765Z,18.49
2022-08-20T04:17:11.212Z,18.53
2022-08-20T04:19:39.206Z,18.55
2022-08-20T04:22:08.068Z,18.63
2022-08-20T04:24:35.319Z,18.65
2022-08-20T04:27:05.333Z,18.66
2022-08-20T04:29:35.338Z,18.63
2022-08-20T04:32:05.767Z,18.63
2022-08-20T04:34:33.467Z,18.64
2022-08-20T04:37:00.032Z,18.65
2022-08-20T04:39:26.912Z,18.67
2022-08-20T04:41:53.436Z,18.71
2022-08-20T04:44:21.880Z,18.75
2022-08-20T04:46:48.641Z,18.70
2022-08-20T04:49:15.295Z,18.74
2022-08-20T04:51:41.913Z,18.79
2022-08-20T04:54:08.439Z,18.85
2022-08-20T04:56:39.708Z,18.90
2022-08-20T04:59:07.492Z,18.91
2022-08-20T05:01:34.518Z,18.94
2022-08-20T05:04:01.091Z,19.00
2022-08-20T05:06:30.374Z,19.05
2022-08-20T05:08:58.617Z,19.10
2022-08-20T05:11:36.143Z,19.10
2022-08-20T05:14:09.041Z,19.14
2022-08-20T05:16:40.511Z,19.23
2022-08-20T05:19:09.393Z,19.32
2022-08-20T05:21:36.268Z,19.37
2022-08-20T05:24:03.032Z,19.44
2022-08-20T05:26:29.566Z,19.54
2022-08-20T05:28:58.956Z,19.62
2022-08-20T05:31:32.357Z,19.72
2022-08-20T05:34:01.791Z,19.80
2022-08-20T05:36:28.544Z,19.91
2022-08-20T05:38:55.074Z,20.00
2022-08-20T05:41:29.143Z,20.04
2022-08-20T05:44:03.065Z,20.12
2022-08-20T05:46:31.770Z,20.20
2022-08-20T05:48:59.688Z,20.21
2022-08-20T05:51:28.147Z,20.28
2022-08-20T05:53:54.718Z,20.32
2022-08-20T05:56:26.787Z,20.39
2022-08-20T05:58:53.768Z,20.46
2022-08-20T06:01:20.408Z,20.53
2022-08-20T06:04:05.640Z,20.60
2022-08-20T06:06:46.209Z,20.68
2022-08-20T06:09:15.986Z,20.75
2022-08-20T06:11:42.583Z,20.88
2022-08-20T06:14:09.213Z,20.95
2022-08-20T06:16:37.266Z,21.02
2022-08-20T06:19:04.312Z,21.12
2022-08-20T06:21:30.943Z,21.21
2022-08-20T06:24:01.106Z,21.30
2022-08-20T06:26:29.994Z,21.47
2022-08-20T06:28:58.474Z,21.72
2022-08-20T06:31:25.118Z,21.93
2022-08-20T06:33:51.694Z,22.06
2022-08-20T06:36:18.967Z,22.14
2022-08-20T06:38:46.641Z,22.22
2022-08-20T06:41:13.374Z,22.31
2022-08-20T06:43:39.906Z,22.37
2022-08-20T06:46:07.022Z,22.41
2022-08-20T06:48:34.003Z,22.51
2022-08-20T06:51:00.767Z,22.62
2022-08-20T06:53:27.329Z,22.76
2022-08-20T06:55:55.843Z,22.80
2022-08-20T06:58:36.919Z,22.92
2022-08-20T07:01:10.011Z,23.05
2022-08-20T07:03:38.592Z,23.14
2022-08-20T07:06:06.239Z,23.27
2022-08-20T07:08:33.423Z,23.34
2022-08-20T07:11:00.033Z,23.38
2022-08-20T07:13:28.452Z,23.49
2022-08-20T07:15:56.111Z,23.57
2022-08-20T07:18:28.277Z,23.63
2022-08-20T07:20:57.375Z,23.74
2022-08-20T07:23:27.553Z,23.80
2022-08-20T07:25:55.774Z,23.87
2022-08-20T07:28:24.689Z,23.93
2022-08-20T07:31:13.692Z,23.96
2022-08-20T07:33:44.597Z,24.02
2022-08-20T07:36:12.311Z,24.08
2022-08-20T07:38:38.953Z,24.17
2022-08-20T07:41:08.564Z,24.29
2022-08-20T07:43:35.448Z,24.38
2022-08-20T07:46:08.592Z,24.47
2022-08-20T07:48:41.922Z,24.51
2022-08-20T07:51:10.882Z,24.59
2022-08-20T07:53:39.341Z,24.62
2022-08-20T07:56:10.182Z,24.71
2022-08-20T07:58:42.064Z,24.78
2022-08-20T08:01:10.331Z,24.84
2022-08-20T08:03:40.925Z,24.91
2022-08-20T08:06:29.374Z,24.95
2022-08-20T08:09:03.381Z,24.99
2022-08-20T08:11:32.488Z,25.02
2022-08-20T08:14:00.075Z,25.07
2022-08-20T08:16:28.536Z,25.13
2022-08-20T08:18:56.924Z,25.16
2022-08-20T08:21:23.903Z,25.25
2022-08-20T08:23:50.702Z,25.37
2022-08-20T08:26:19.050Z,25.39
2022-08-20T08:28:46.707Z,25.50
2022-08-20T08:31:14.177Z,25.62
2022-08-20T08:33:41.639Z,25.68
2022-08-20T08:36:11.108Z,25.76
2022-08-20T08:38:39.886Z,25.76
2022-08-20T08:41:12.577Z,25.70
2022-08-20T08:43:39.474Z,25.82
2022-08-20T08:46:10.624Z,25.87
2022-08-20T08:48:45.521Z,25.95
2022-08-20T08:51:16.712Z,26.02
2022-08-20T08:53:54.831Z,26.03
2022-08-20T08:56:25.035Z,26.06
2022-08-20T08:58:51.585Z,26.10
2022-08-20T09:01:55.162Z,26.14
2022-08-20T09:04:09.459Z,26.18
2022-08-20T09:06:36.339Z,26.22
2022-08-20T09:09:06.586Z,26.27
2022-08-20T09:11:46.070Z,26.40
2022-08-20T09:14:12.869Z,26.48
2022-08-20T09:16:52.740Z,26.53
2022-08-20T09:19:20.736Z,26.56
2022-08-20T09:21:47.453Z,26.63
2022-08-20T09:24:14.107Z,26.74
2022-08-20T09:26:40.681Z,26.79
2022-08-20T09:29:07.235Z,26.81
2022-08-20T09:31:33.798Z,26.85
2022-08-20T09:34:00.405Z,26.89
2022-08-20T09:36:32.345Z,26.97
2022-08-20T09:39:00.042Z,27.06
2022-08-20T09:41:26.615Z,27.11
2022-08-20T09:43:53.498Z,27.13
2022-08-20T09:46:20.061Z,27.14
2022-08-20T09:48:54.134Z,27.25
2022-08-20T09:51:20.859Z,27.37
2022-08-20T09:53:48.925Z,27.41
2022-08-20T09:56:15.921Z,27.39
2022-08-20T09:58:55.088Z,27.43
2022-08-20T10:01:23.108Z,27.46
2022-08-20T10:03:50.332Z,27.46
2022-08-20T10:06:19.748Z,27.51
2022-08-20T10:08:47.268Z,27.55
2022-08-20T10:11:13.846Z,27.64
2022-08-20T10:13:40.387Z,27.81
2022-08-20T10:16:07.368Z,27.94
2022-08-20T10:18:35.228Z,27.95
2022-08-20T10:21:01.914Z,27.97
2022-08-20T10:23:28.552Z,28.00
2022-08-20T10:25:55.100Z,28.11
2022-08-20T10:28:21.640Z,28.11
2022-08-20T10:30:48.188Z,28.16
2022-08-20T10:33:14.740Z,28.24
2022-08-20T10:35:41.251Z,28.27
2022-08-20T10:38:07.777Z,28.25
2022-08-20T10:40:34.369Z,28.27
2022-08-20T10:43:01.105Z,28.32
2022-08-20T10:45:27.752Z,28.40
2022-08-20T10:47:54.304Z,28.42
2022-08-20T10:50:21.250Z,28.40
2022-08-20T10:52:48.011Z,28.36
2022-08-20T10:55:15.464Z,28.40
2022-08-20T10:57:43.524Z,28.45
2022-08-20T11:00:13.312Z,28.49
2022-08-20T11:02:39.914Z,28.54
2022-08-20T11:05:08.230Z,28.59
2022-08-20T11:07:54.832Z,28.68
2022-08-20T11:10:25.570Z,28.75
2022-08-20T11:12:52.177Z,28.78
2022-08-20T11:15:19.062Z,28.78
2022-08-20T11:17:47.121Z,28.74
2022-08-20T11:20:18.067Z,28.74
2022-08-20T11:22:44.668Z,28.75
2022-08-20T11:25:11.858Z,28.76
2022-08-20T11:27:45.121Z,28.85
2022-08-20T11:30:15.920Z,28.90
2022-08-20T11:32:42.450Z,28.95
2022-08-20T11:35:31.006Z,28.99
2022-08-20T11:37:58.486Z,29.04
2022-08-20T11:40:28.846Z,29.07
2022-08-20T11:45:45.399Z,29.12
2022-08-20T11:48:11.992Z,29.07
2022-08-20T11:50:38.625Z,29.08
2022-08-20T11:53:05.184Z,29.12
2022-08-20T11:55:32.635Z,29.11
2022-08-20T11:58:00.201Z,29.11
2022-08-20T12:00:33.127Z,29.05
2022-08-20T12:03:05.734Z,29.00
2022-08-20T12:05:38.056Z,28.97
2022-08-20T12:08:05.158Z,28.93
2022-08-20T12:10:32.316Z,28.91
2022-08-20T12:12:59.078Z,28.85
2022-08-20T12:15:26.885Z,28.82
2022-08-20T12:17:53.610Z,28.80
2022-08-20T12:20:20.261Z,28.80
2022-08-20T12:22:46.849Z,28.74
2022-08-20T12:25:13.712Z,28.70
2022-08-20T12:27:40.851Z,28.67
2022-08-20T12:30:15.613Z,28.62
2022-08-20T12:32:42.626Z,28.54
2022-08-20T12:35:10.725Z,28.47
2022-08-20T12:37:37.879Z,28.42
2022-08-20T12:40:08.320Z,28.36
2022-08-20T12:42:35.031Z,28.32
2022-08-20T12:45:01.764Z,28.24
2022-08-20T12:47:31.360Z,28.17
2022-08-20T12:50:01.150Z,28.09
2022-08-20T12:52:29.585Z,28.04
2022-08-20T12:54:57.187Z,27.98
2022-08-20T12:57:25.573Z,27.92
2022-08-20T12:59:52.250Z,27.88
2022-08-20T13:02:19.230Z,27.86
2022-08-20T13:04:45.899Z,27.84
2022-08-20T13:07:13.670Z,27.80
2022-08-20T13:09:40.958Z,27.75
2022-08-20T13:12:08.337Z,27.70
2022-08-20T13:26:31.918Z,28.04
2022-08-20T13:28:58.425Z,27.93
2022-08-20T13:31:27.404Z,27.85
2022-08-20T13:33:53.965Z,27.75
2022-08-20T13:36:20.680Z,27.69
2022-08-20T13:38:47.247Z,27.63
2022-08-20T13:41:13.853Z,27.52
2022-08-20T13:43:40.448Z,27.47
2022-08-20T13:46:06.989Z,27.45
2022-08-20T13:48:33.739Z,27.38
2022-08-20T13:51:00.336Z,27.33
2022-08-20T13:53:27.769Z,27.27
2022-08-20T13:55:54.331Z,27.21
2022-08-20T13:58:22.810Z,27.08
2022-08-20T14:00:49.867Z,26.95
2022-08-20T14:03:19.797Z,26.82
2022-08-20T14:05:46.504Z,26.68
2022-08-20T14:08:18.523Z,26.66
2022-08-20T14:10:49.075Z,26.78
2022-08-20T14:13:20.189Z,26.82
2022-08-20T14:15:46.694Z,26.76
2022-08-20T14:18:14.594Z,26.84
2022-08-20T14:20:41.833Z,26.87
2022-08-20T14:23:11.984Z,26.84
2022-08-20T14:25:38.516Z,26.86
2022-08-20T14:28:18.182Z,26.87
2022-08-20T14:30:45.678Z,26.81
2022-08-20T14:33:19.376Z,26.81
2022-08-20T14:35:45.918Z,26.74
2022-08-20T14:38:13.663Z,26.64
2022-08-20T14:40:40.299Z,26.65
2022-08-20T14:43:06.979Z,26.58
2022-08-20T14:45:33.550Z,26.50
2022-08-20T14:48:00.282Z,26.38
2022-08-20T14:50:36.704Z,26.26
2022-08-20T14:53:04.074Z,26.21
2022-08-20T14:55:35.894Z,26.25
2022-08-20T14:58:07.142Z,26.23
2022-08-20T15:00:34.701Z,26.25
2022-08-20T15:03:01.402Z,26.19
2022-08-20T15:05:29.820Z,26.17
2022-08-20T15:07:57.525Z,26.14
2022-08-20T15:10:29.422Z,26.03
2022-08-20T15:12:56.521Z,25.96
2022-08-20T15:15:24.204Z,25.95
2022-08-20T15:17:54.959Z,25.92
2022-08-20T15:20:25.236Z,25.83
2022-08-20T15:22:52.391Z,25.75
2022-08-20T15:25:21.445Z,25.76
2022-08-20T15:27:48.031Z,25.77
2022-08-20T15:30:22.041Z,25.64
2022-08-20T15:32:54.141Z,25.54
2022-08-20T15:35:22.986Z,25.56
2022-08-20T15:37:50.760Z,25.53
2022-08-20T15:40:25.831Z,25.51
2022-08-20T15:42:54.600Z,25.44
2022-08-20T15:45:21.966Z,25.27
2022-08-20T15:47:59.514Z,25.27
2022-08-20T15:50:47.732Z,25.22
2022-08-20T15:53:25.930Z,25.16
2022-08-20T15:56:27.768Z,25.14
2022-08-20T15:59:13.091Z,25.12
2022-08-20T16:01:52.568Z,25.05
2022-08-20T16:04:37.481Z,24.94
2022-08-20T16:07:13.284Z,24.86
2022-08-20T16:10:05.795Z,24.80
2022-08-20T16:12:37.034Z,24.72
2022-08-20T16:15:29.180Z,24.62
2022-08-20T16:17:58.836Z,24.56
2022-08-20T16:20:47.982Z,24.52
2022-08-20T16:23:21.566Z,24.56
2022-08-20T16:26:08.654Z,24.42
2022-08-20T16:28:49.013Z,24.33
2022-08-20T16:31:20.867Z,24.21
2022-08-20T16:34:10.524Z,24.17
2022-08-20T16:37:19.291Z,24.20
2022-08-20T16:39:57.213Z,24.21
2022-08-20T16:42:28.585Z,24.16
2022-08-20T16:44:57.374Z,24.10
2022-08-20T16:47:29.598Z,24.04
2022-08-20T16:50:13.452Z,24.09
2022-08-20T16:52:43.027Z,24.15
2022-08-20T16:55:10.318Z,24.20
2022-08-20T16:57:37.328Z,24.23
2022-08-20T17:00:45.042Z,24.21
2022-08-20T17:03:31.511Z,24.18
2022-08-20T17:06:24.605Z,24.20
2022-08-20T17:08:51.315Z,24.25
2022-08-20T17:11:31.055Z,24.25
2022-08-20T17:14:06.352Z,24.24
2022-08-20T17:16:37.954Z,24.28
2022-08-20T17:19:35.033Z,24.28
2022-08-20T17:22:11.616Z,24.26
2022-08-20T17:24:38.742Z,24.22
2022-08-20T17:27:10.739Z,24.13
2022-08-20T17:30:05.607Z,24.02
2022-08-20T17:32:32.242Z,23.88
2022-08-20T17:35:02.103Z,23.80
2022-08-20T17:37:40.857Z,23.71
2022-08-20T17:40:15.588Z,23.68
2022-08-20T17:43:06.017Z,23.60
2022-08-20T17:45:38.924Z,23.51
2022-08-20T17:48:10.796Z,23.48
2022-08-20T17:50:40.173Z,23.40
2022-08-20T17:53:09.595Z,23.32
2022-08-20T17:55:37.146Z,23.30
2022-08-20T17:58:06.873Z,23.28
2022-08-20T18:00:33.470Z,23.19
2022-08-20T18:03:15.018Z,23.07
2022-08-20T18:05:43.569Z,23.01
2022-08-20T18:08:16.097Z,22.94
2022-08-20T18:11:13.784Z,22.91
2022-08-20T18:13:52.335Z,22.90
2022-08-20T18:16:46.751Z,22.86
2022-08-20T18:19:20.119Z,22.74
2022-08-20T18:22:11.501Z,22.58
2022-08-20T18:24:49.370Z,22.44
2022-08-20T18:27:20.744Z,22.39
2022-08-20T18:29:52.331Z,22.33
2022-08-20T18:32:33.341Z,22.22
2022-08-20T18:35:12.230Z,22.22
2022-08-20T18:37:39.466Z,22.20
2022-08-20T18:40:14.216Z,22.12
2022-08-20T18:42:41.296Z,22.05
2022-08-20T18:45:08.570Z,21.92
2022-08-20T18:47:35.130Z,21.93
2022-08-20T18:50:20.526Z,21.89
2022-08-20T18:53:20.195Z,21.81
2022-08-20T18:56:00.674Z,21.76
2022-08-20T18:58:47.741Z,21.73
2022-08-20T19:01:15.014Z,21.73
2022-08-20T19:03:47.725Z,21.68
2022-08-20T19:06:46.530Z,21.63
2022-08-20T19:09:31.181Z,21.55
2022-08-20T19:12:09.718Z,21.52
2022-08-20T19:14:58.149Z,21.47
2022-08-20T19:17:38.001Z,21.47
2022-08-20T19:20:10.776Z,21.45
2022-08-20T19:22:40.014Z,21.47
2022-08-20T19:25:07.531Z,21.46
2022-08-20T19:27:34.235Z,21.40
2022-08-20T19:30:01.513Z,21.36
2022-08-20T19:32:33.270Z,21.28
2022-08-20T19:35:04.032Z,21.20
2022-08-20T19:37:50.612Z,21.18
2022-08-20T19:40:38.865Z,21.14
2022-08-20T19:43:12.023Z,21.08
2022-08-20T19:45:40.002Z,21.06
2022-08-20T19:48:15.808Z,20.99
2022-08-20T19:50:58.591Z,20.91
2022-08-20T19:53:30.405Z,20.91
2022-08-20T19:56:16.006Z,20.92
2022-08-20T19:58:44.112Z,20.90
2022-08-20T20:01:20.408Z,20.88
2022-08-20T20:04:00.246Z,20.85
2022-08-20T20:06:29.547Z,20.84
2022-08-20T20:09:03.345Z,20.76
2022-08-20T20:11:46.206Z,20.71
2022-08-20T20:14:17.624Z,20.71
2022-08-20T20:16:45.908Z,20.69
2022-08-20T20:19:26.376Z,20.69
2022-08-20T20:22:07.018Z,20.68
2022-08-20T20:24:47.413Z,20.69
2022-08-20T20:27:20.966Z,20.65
2022-08-20T20:29:48.743Z,20.59
2022-08-20T20:32:21.119Z,20.52
2022-08-20T20:34:56.222Z,20.45
2022-08-20T20:37:48.866Z,20.43
2022-08-20T20:40:45.725Z,20.41
2022-08-20T20:43:24.059Z,20.43
2022-08-20T20:46:20.368Z,20.39
2022-08-20T20:48:54.325Z,20.38
2022-08-20T20:51:31.771Z,20.30
2022-08-20T20:54:05.436Z,20.30
2022-08-20T20:56:42.142Z,20.32
2022-08-20T20:59:09.825Z,20.30
2022-08-20T21:01:49.928Z,20.30
2022-08-20T21:04:22.494Z,20.25
2022-08-20T21:06:50.868Z,20.17
2022-08-20T21:09:18.648Z,20.08
2022-08-20T21:11:45.895Z,20.00
2022-08-20T21:14:12.466Z,19.96
2022-08-20T21:16:39.378Z,19.96
2022-08-20T21:19:07.321Z,19.90
2022-08-20T21:21:34.629Z,19.81
2022-08-20T21:24:01.273Z,19.80
2022-08-20T21:26:28.455Z,19.86
2022-08-20T21:28:55.701Z,19.85
2022-08-20T21:31:26.191Z,19.82
2022-08-20T21:33:52.757Z,19.78
2022-08-20T21:36:19.287Z,19.75
2022-08-20T21:38:45.810Z,19.69
2022-08-20T21:41:14.441Z,19.66
2022-08-20T21:43:42.153Z,19.69
2022-08-20T21:46:11.107Z,19.67
2022-08-20T21:48:39.921Z,19.62
2022-08-20T21:51:06.513Z,19.56
2022-08-20T21:53:33.139Z,19.49
2022-08-20T21:56:00.541Z,19.46
2022-08-20T21:58:27.079Z,19.42
2022-08-20T22:00:55.763Z,19.40
2022-08-20T22:03:28.572Z,19.40
2022-08-20T22:05:58.185Z,19.43
2022-08-20T22:08:26.673Z,19.45
2022-08-20T22:10:57.179Z,19.41
2022-08-20T22:13:25.156Z,19.36
2022-08-20T22:15:51.755Z,19.32
2022-08-20T22:18:18.376Z,19.31
2022-08-20T22:20:45.201Z,19.36
2022-08-20T22:23:12.213Z,19.31
2022-08-20T22:25:38.937Z,19.29
2022-08-20T22:28:05.489Z,19.28
2022-08-20T22:30:32.048Z,19.32
2022-08-20T22:33:04.493Z,19.27
2022-08-20T22:35:32.348Z,19.23
2022-08-20T22:37:58.877Z,19.18
2022-08-20T22:40:25.782Z,19.17
2022-08-20T22:42:52.368Z,19.14
2022-08-20T22:45:19.516Z,19.14
2022-08-20T22:47:46.526Z,19.14
2022-08-20T22:50:14.296Z,19.13
2022-08-20T22:52:42.366Z,19.13
2022-08-20T22:55:09.779Z,19.14
2022-08-20T22:57:37.275Z,19.12
2022-08-20T23:00:11.652Z,19.11
2022-08-20T23:02:39.737Z,19.06
2022-08-20T23:05:06.758Z,19.02
2022-08-20T23:07:34.029Z,18.98
2022-08-20T23:10:00.579Z,18.98
2022-08-20T23:12:27.137Z,18.93
2022-08-20T23:14:54.919Z,18.94
2022-08-20T23:17:21.539Z,18.92
2022-08-20T23:19:49.237Z,18.88
2022-08-20T23:22:16.321Z,18.80
2022-08-20T23:24:43.256Z,18.77
2022-08-20T23:27:14.039Z,18.76
2022-08-20T23:29:40.856Z,18.72
2022-08-20T23:32:07.685Z,18.66
2022-08-20T23:34:34.402Z,18.61
2022-08-20T23:37:02.055Z,18.62
2022-08-20T23:39:29.520Z,18.65
2022-08-20T23:41:56.035Z,18.67
2022-08-20T23:44:25.781Z,18.63
2022-08-20T23:46:58.532Z,18.55
2022-08-20T23:49:26.455Z,18.51
2022-08-20T23:51:53.094Z,18.51
2022-08-20T23:54:19.745Z,18.48
2022-08-20T23:56:46.517Z,18.49
2022-08-20T23:59:13.082Z,18.49
